Time;durP1;ratioP1;P1;durP2;ratioP2;P2;SDS_P1;SDS_P2;PMS_P1;PMS_P2;Temp;Humidity;BMP_temperature;BMP_pressure;BME280_temperature;BME280_humidity;BME280_pressure;Samples;Min_cycle;Max_cycle;Signal;HPM_P1;HPM_P2
2022/07/05 00:01:22;;;;;;;2.42;1.65;;;20.60;67.20;;;20.62;100.00;100766.69;4976327;28;20046;-75
2022/07/05 00:03:49;;;;;;;4.75;1.58;;;20.50;68.70;;;20.57;100.00;100773.25;4977257;28;20050;-76
2022/07/05 00:06:16;;;;;;;5.63;2.00;;;20.50;70.10;;;20.59;100.00;100776.69;4979117;28;20054;-76
2022/07/05 00:08:43;;;;;;;3.38;1.70;;;20.40;71.20;;;20.54;100.00;100769.00;4976576;28;20049;-73
2022/07/05 00:11:10;;;;;;;6.32;1.85;;;20.40;72.10;;;20.50;100.00;100765.63;4978711;28;20491;-75
2022/07/05 00:13:37;;;;;;;3.35;1.67;;;20.30;73.10;;;20.40;100.00;100775.13;4966826;28;20149;-76
2022/07/05 00:16:04;;;;;;;3.67;1.88;;;20.30;74.80;;;20.45;100.00;100761.50;4977054;28;20057;-76
2022/07/05 00:18:32;;;;;;;4.70;1.92;;;20.30;76.40;;;20.34;100.00;100768.34;4961394;28;20093;-76
2022/07/05 00:20:59;;;;;;;5.70;2.10;;;20.20;75.80;;;20.24;100.00;100759.16;4976313;28;20049;-75
2022/07/05 00:23:26;;;;;;;2.75;1.80;;;20.20;77.00;;;20.08;100.00;100767.19;4966179;28;20045;-76
2022/07/05 00:25:53;;;;;;;2.92;1.70;;;20.10;77.80;;;20.12;100.00;100776.75;4978485;28;20057;-76
2022/07/05 00:28:20;;;;;;;4.28;1.80;;;20.00;79.10;;;20.05;100.00;100778.91;4975564;28;20047;-75
2022/07/05 00:30:47;;;;;;;5.13;2.42;;;19.90;80.40;;;19.76;100.00;100776.06;4960383;28;20039;-76
2022/07/05 00:33:14;;;;;;;4.65;2.00;;;19.90;82.20;;;19.66;100.00;100775.69;4980723;28;20047;-74
2022/07/05 00:35:41;;;;;;;4.38;2.33;;;19.80;82.90;;;19.63;100.00;100772.38;4967510;28;20058;-77
2022/07/05 00:38:08;;;;;;;5.60;1.60;;;19.70;84.20;;;19.66;100.00;100769.53;4980797;28;20043;-77
2022/07/05 00:40:35;;;;;;;4.70;1.60;;;19.60;85.90;;;19.58;100.00;100771.75;4980746;28;20035;-76
2022/07/05 00:43:03;;;;;;;3.42;1.88;;;19.50;87.40;;;19.58;100.00;100772.63;4997258;28;20452;-76
2022/07/05 00:45:30;;;;;;;2.90;1.73;;;19.50;88.90;;;19.45;100.00;100771.56;4982355;28;20050;-77
2022/07/05 00:47:57;;;;;;;3.08;1.80;;;19.40;90.00;;;19.45;100.00;100768.91;4980529;28;20039;-76
2022/07/05 00:50:24;;;;;;;4.13;2.05;;;19.40;90.20;;;19.41;100.00;100770.88;4968468;28;20042;-77
2022/07/05 00:52:55;;;;;;;2.50;2.05;;;19.30;90.50;;;19.33;100.00;100771.28;4968760;28;20056;-77
2022/07/05 00:55:23;;;;;;;3.80;2.00;;;19.20;91.00;;;19.23;100.00;100772.75;4983138;28;20156;-77
2022/07/05 00:57:50;;;;;;;5.25;2.25;;;19.20;91.40;;;19.35;100.00;100771.22;4984502;28;20046;-76
2022/07/05 01:00:18;;;;;;;5.15;1.95;;;19.20;91.40;;;19.31;100.00;100765.19;4959722;28;20046;-77
2022/07/05 01:02:45;;;;;;;3.28;1.48;;;19.20;91.30;;;19.20;100.00;100773.78;4963779;28;20061;-78
2022/07/05 01:05:13;;;;;;;3.13;1.98;;;19.20;91.90;;;19.22;100.00;100776.38;4960963;28;20627;-76
2022/07/05 01:07:40;;;;;;;3.80;1.95;;;19.50;92.10;;;19.16;100.00;100777.56;4953853;28;20400;-77
2022/07/05 01:10:07;;;;;;;4.28;1.92;;;19.00;91.90;;;18.98;100.00;100782.03;4982352;28;20087;-77
2022/07/05 01:12:36;;;;;;;2.53;1.75;;;19.00;92.40;;;19.01;100.00;100784.56;4985754;28;20057;-77
2022/07/05 01:15:04;;;;;;;2.20;2.00;;;19.00;92.50;;;18.95;100.00;100785.69;4980974;28;20081;-76
2022/07/05 01:17:35;;;;;;;3.05;1.95;;;18.90;92.90;;;18.86;100.00;100778.19;4981289;28;20042;-76
2022/07/05 01:20:04;;;;;;;4.60;1.88;;;18.90;92.80;;;18.82;100.00;100784.66;4986841;28;20034;-75
2022/07/05 01:22:56;;;;;;;2.20;1.80;;;18.80;92.80;;;18.76;100.00;100784.94;4977351;28;20038;-76
2022/07/05 01:25:26;;;;;;;3.17;1.98;;;18.70;92.90;;;18.61;100.00;100783.94;4963417;28;20080;-75
2022/07/05 01:27:54;;;;;;;;;;;18.70;92.90;;;18.82;100.00;100780.16;4984299;28;20423;-75
2022/07/05 01:30:21;;;;;;;2.60;1.80;;;18.60;92.90;;;18.68;100.00;100794.22;4982221;28;19921;-76
2022/07/05 01:32:49;;;;;;;2.85;2.13;;;18.70;93.30;;;18.69;100.00;100790.59;4968874;28;20056;-76
2022/07/05 01:35:20;;;;;;;3.72;2.03;;;18.60;92.90;;;18.79;100.00;100788.31;4984555;28;20121;-76
2022/07/05 01:37:49;;;;;;;3.13;1.80;;;18.60;93.10;;;18.84;100.00;100783.59;4985394;28;21729;-76
2022/07/05 01:40:18;;;;;;;3.90;1.98;;;18.60;93.10;;;18.77;100.00;100784.88;4961372;28;20042;-76
2022/07/05 01:42:47;;;;;;;4.47;2.13;;;18.70;93.20;;;18.73;100.00;100780.63;4985934;28;20030;-76
2022/07/05 01:48:05;;;;;;;4.03;2.10;;;18.60;93.10;;;18.70;100.00;100781.66;4986971;28;20442;-76
2022/07/05 01:50:59;;;;;;;3.80;1.77;;;18.60;93.00;;;18.74;100.00;100778.84;4970576;28;20505;-76
2022/07/05 01:53:32;;;;;;;4.03;1.98;;;18.60;93.10;;;18.61;100.00;100787.47;4983006;28;20050;-76
2022/07/05 01:56:03;;;;;;;3.80;1.98;;;18.60;93.50;;;18.41;100.00;100789.34;4966782;28;20069;-76
2022/07/05 01:58:31;;;;;;;3.08;1.80;;;18.40;93.60;;;18.39;100.00;100785.91;4969441;28;20066;-76
2022/07/05 02:00:59;;;;;;;8.07;2.38;;;18.40;93.60;;;18.43;100.00;100784.78;4952256;28;20050;-75
2022/07/05 02:03:27;;;;;;;4.07;2.03;;;18.30;93.60;;;18.26;100.00;100782.13;4983728;28;20054;-75
2022/07/05 02:06:14;;;;;;;4.32;2.08;;;18.30;94.20;;;18.20;100.00;100790.41;4971108;28;20069;-75
2022/07/05 02:08:41;;;;;;;3.22;1.80;;;18.20;94.20;;;18.13;100.00;100793.38;4970995;28;20070;-75
2022/07/05 02:11:09;;;;;;;2.50;1.70;;;18.10;94.30;;;17.94;100.00;100795.19;4970716;28;20065;-76
2022/07/05 02:13:38;;;;;;;3.50;1.98;;;18.10;94.70;;;17.95;100.00;100792.44;4986185;28;20077;-76
2022/07/05 02:16:06;;;;;;;2.90;1.75;;;18.00;94.90;;;17.99;100.00;100795.81;4981496;28;20050;-77
2022/07/05 02:18:33;;;;;;;2.88;1.60;;;18.00;94.60;;;17.91;100.00;100792.66;4983701;28;20046;-77
2022/07/05 02:21:00;;;;;;;3.65;1.75;;;18.00;94.60;;;17.96;100.00;100790.63;4983225;28;20388;-76
2022/07/05 02:23:27;;;;;;;3.50;2.00;;;17.90;94.60;;;18.00;100.00;100787.75;4984666;28;20053;-75
2022/07/05 02:25:55;;;;;;;5.10;1.90;;;17.90;94.50;;;18.08;100.00;100799.84;4967312;28;20053;-76
2022/07/05 02:28:22;;;;;;;3.15;2.10;;;17.90;94.70;;;17.98;100.00;100792.28;4987379;28;20061;-76
2022/07/05 02:30:51;;;;;;;5.70;2.20;;;17.90;94.70;;;18.08;100.00;100790.06;4980303;28;20145;-75
2022/07/05 02:33:18;;;;;;;5.15;1.75;;;17.90;94.70;;;17.95;100.00;100800.44;4983466;28;20112;-77
2022/07/05 02:35:47;;;;;;;2.67;2.15;;;17.90;94.80;;;18.04;100.00;100790.28;4986327;28;20825;-75
2022/07/05 02:38:14;;;;;;;4.13;2.10;;;17.90;94.80;;;17.94;100.00;100796.03;4980367;28;20110;-76
2022/07/05 02:40:41;;;;;;;6.10;2.30;;;17.90;95.50;;;18.03;100.00;100800.09;4984069;28;20044;-76
2022/07/05 02:43:08;;;;;;;3.08;1.98;;;17.90;95.50;;;17.92;100.00;100805.03;4970176;28;20039;-75
2022/07/05 02:45:35;;;;;;;4.57;2.05;;;17.80;96.00;;;17.92;100.00;100805.88;4980777;28;20436;-76
2022/07/05 02:48:03;;;;;;;4.30;2.10;;;17.80;96.20;;;17.88;100.00;100808.78;4963176;28;20101;-75
2022/07/05 02:50:32;;;;;;;3.72;1.90;;;17.80;96.00;;;17.90;100.00;100814.91;4976271;28;20055;-76
2022/07/05 02:52:59;;;;;;;4.45;2.10;;;17.80;95.80;;;17.82;100.00;100812.59;4984664;28;20621;-75
2022/07/05 02:55:26;;;;;;;5.25;2.30;;;18.40;96.30;;;17.65;100.00;100811.59;4978995;28;20416;-75
2022/07/05 02:57:55;;;;;;;9.55;2.17;;;17.70;96.30;;;17.61;100.00;100811.81;4970293;28;20606;-76
2022/07/05 03:00:22;;;;;;;3.38;1.98;;;17.70;96.40;;;17.64;100.00;100809.00;4968183;28;20114;-75
2022/07/05 03:02:49;;;;;;;7.13;2.22;;;17.60;96.30;;;17.70;100.00;100812.25;4986867;28;20049;-76
2022/07/05 03:05:17;;;;;;;3.60;2.00;;;17.60;96.70;;;17.54;100.00;100811.22;4982676;28;20378;-75
2022/07/05 03:07:53;;;;;;;6.80;2.50;;;17.60;96.20;;;17.59;100.00;100806.53;4976996;28;20097;-76
2022/07/05 03:10:20;;;;;;;2.45;1.88;;;17.60;96.40;;;17.41;100.00;100808.28;4982509;28;20054;-75
2022/07/05 03:12:47;;;;;;;7.60;1.92;;;17.40;96.50;;;17.50;100.00;100807.00;4969628;28;20125;-76
2022/07/05 03:15:15;;;;;;;3.30;2.10;;;17.40;96.50;;;17.20;100.00;100813.63;4985351;28;20088;-75
2022/07/05 03:17:42;;;;;;;3.95;2.22;;;17.70;97.00;;;17.10;100.00;100809.66;4987158;28;20050;-75
2022/07/05 03:20:10;;;;;;;4.15;2.80;;;17.40;97.20;;;17.21;100.00;100815.34;4965547;28;20046;-75
2022/07/05 03:22:37;;;;;;;4.55;2.40;;;17.20;97.00;;;17.21;100.00;100823.31;4969640;28;20046;-75
2022/07/05 03:25:06;;;;;;;4.65;2.20;;;17.20;97.20;;;17.11;100.00;100814.88;4953833;28;20054;-76
2022/07/05 03:27:34;;;;;;;3.60;1.95;;;17.10;97.10;;;17.13;100.00;100817.50;4985547;28;20074;-76
2022/07/05 03:30:04;;;;;;;3.55;2.15;;;17.10;97.30;;;17.03;100.00;100825.03;4954229;28;20049;-75
2022/07/05 03:32:33;;;;;;;3.63;2.30;;;17.00;97.50;;;17.01;100.00;100819.75;4963365;28;20050;-76
2022/07/05 03:35:00;;;;;;;3.00;2.55;;;17.00;97.40;;;16.95;100.00;100817.34;4978824;28;20051;-76
2022/07/05 03:37:28;;;;;;;4.43;2.22;;;17.00;97.50;;;16.95;100.00;100814.69;4965979;28;20038;-76
2022/07/05 03:39:56;;;;;;;6.15;2.13;;;16.90;97.50;;;16.98;100.00;100814.53;4966569;28;20051;-76
2022/07/05 03:42:23;;;;;;;2.35;2.08;;;16.90;97.20;;;16.94;100.00;100823.59;4966611;28;20082;-76
2022/07/05 03:44:50;;;;;;;3.55;1.85;;;16.90;97.00;;;17.06;100.00;100826.66;4962754;28;20073;-76
2022/07/05 03:47:19;;;;;;;4.20;2.00;;;16.90;97.20;;;16.96;100.00;100826.16;4966627;28;20079;-76
2022/07/05 03:49:46;;;;;;;5.18;2.40;;;17.00;97.20;;;16.86;100.00;100831.91;4978443;28;20034;-75
2022/07/05 03:52:14;;;;;;;4.15;2.00;;;16.90;97.00;;;17.03;100.00;100821.47;4965543;28;20057;-75
2022/07/05 03:54:44;;;;;;;7.18;2.88;;;16.90;96.90;;;16.86;100.00;100826.59;4962579;28;20152;-76
2022/07/05 03:57:13;;;;;;;2.63;1.90;;;17.20;97.40;;;16.79;100.00;100840.19;4959708;28;20039;-75
2022/07/05 03:59:40;;;;;;;3.57;2.97;;;16.80;97.60;;;16.87;100.00;100835.41;4966279;28;20058;-75
2022/07/05 04:02:11;;;;;;;2.35;1.90;;;16.80;97.40;;;16.89;100.00;100841.50;4984954;28;20296;-76
2022/07/05 04:04:39;;;;;;;3.15;2.00;;;16.80;97.50;;;16.88;100.00;100834.47;4970714;28;20046;-76
2022/07/05 04:07:06;;;;;;;4.57;1.95;;;16.90;97.60;;;16.74;100.00;100840.38;4971243;28;20042;-76
2022/07/05 04:09:35;;;;;;;2.90;2.13;;;16.80;97.70;;;16.62;100.00;100844.41;4949137;28;20043;-76
2022/07/05 04:12:04;;;;;;;3.35;2.00;;;16.80;97.90;;;16.64;100.00;100834.59;4981634;28;20050;-75
2022/07/05 04:14:33;;;;;;;5.47;2.15;;;16.70;97.70;;;16.85;100.00;100839.94;4966533;28;20065;-76
2022/07/05 04:17:00;;;;;;;3.13;1.85;;;16.70;97.50;;;16.79;100.00;100848.16;4981548;28;20507;-75
2022/07/05 04:19:28;;;;;;;6.00;2.53;;;16.60;97.90;;;16.86;100.00;100847.84;4981467;28;20050;-75
2022/07/05 04:21:55;;;;;;;3.75;2.08;;;16.70;97.90;;;16.84;100.00;100852.34;4981478;28;20043;-74
2022/07/05 04:24:25;;;;;;;3.78;2.63;;;16.70;97.70;;;16.85;100.00;100854.06;4975961;28;20035;-76
2022/07/05 04:26:53;;;;;;;4.15;2.45;;;16.80;97.70;;;16.90;100.00;100847.72;4962494;28;20113;-75
2022/07/05 04:29:20;;;;;;;3.95;2.17;;;16.80;97.90;;;16.90;100.00;100848.56;4986047;28;20053;-74
2022/07/05 04:31:47;;;;;;;4.47;2.63;;;16.80;97.90;;;16.86;100.00;100846.97;4964486;28;20057;-74
2022/07/05 04:34:14;;;;;;;3.97;1.98;;;16.80;98.00;;;16.92;100.00;100843.19;4965880;28;20082;-75
2022/07/05 04:36:42;;;;;;;3.63;2.80;;;16.80;97.80;;;16.99;100.00;100848.19;4963916;28;20054;-75
2022/07/05 04:39:09;;;;;;;4.18;1.80;;;16.90;97.90;;;17.06;100.00;100853.25;4974256;28;20073;-77
2022/07/05 04:41:41;;;;;;;2.63;2.08;;;16.90;97.60;;;17.17;100.00;100860.75;4972627;28;20050;-77
2022/07/05 04:44:11;;;;;;;3.15;2.65;;;17.00;97.50;;;17.17;100.00;100861.63;4981956;28;20042;-78
2022/07/05 04:46:38;;;;;;;3.97;2.20;;;17.10;97.60;;;17.18;100.00;100862.50;4982354;28;20810;-76
2022/07/05 04:49:06;;;;;;;3.75;2.15;;;17.10;97.90;;;17.14;100.00;100862.59;4951174;28;20054;-77
2022/07/05 04:51:33;;;;;;;4.00;2.15;;;17.40;97.90;;;17.25;100.00;100866.59;4978383;28;20070;-77
2022/07/05 04:54:00;;;;;;;4.63;2.75;;;17.10;97.70;;;17.37;100.00;100876.69;4976701;28;20054;-76
2022/07/05 04:56:27;;;;;;;3.90;2.20;;;17.20;97.50;;;17.41;100.00;100870.31;4978568;28;20053;-77
2022/07/05 04:58:54;;;;;;;3.63;2.58;;;17.30;97.50;;;17.60;100.00;100868.63;4956416;28;20475;-77
2022/07/05 05:01:21;;;;;;;5.43;2.10;;;17.40;97.90;;;17.67;100.00;100867.38;4975006;28;20046;-75
2022/07/05 05:03:48;;;;;;;5.68;2.65;;;17.40;97.80;;;17.81;100.00;100869.44;4991349;28;20018;-76
2022/07/05 05:06:15;;;;;;;3.35;2.20;;;17.50;97.80;;;17.88;100.00;100865.53;4999811;28;20406;-76
2022/07/05 05:08:42;;;;;;;4.00;2.38;;;17.50;97.40;;;17.92;100.00;100872.44;4987374;28;20049;-76
2022/07/05 05:11:10;;;;;;;4.20;2.50;;;17.70;97.50;;;18.02;100.00;100875.56;4968417;28;20448;-77
2022/07/05 05:13:36;;;;;;;4.63;2.55;;;17.70;97.70;;;18.08;100.00;100874.41;4971405;28;20046;-76
2022/07/05 05:16:04;;;;;;;4.65;2.50;;;17.80;97.40;;;18.14;100.00;100880.31;4969398;28;20034;-77
2022/07/05 05:18:31;;;;;;;6.68;2.83;;;17.80;97.80;;;18.19;100.00;100879.25;4967898;28;20030;-76
2022/07/05 05:20:58;;;;;;;6.47;2.28;;;17.80;97.80;;;18.31;100.00;100875.97;4982853;28;20034;-76
2022/07/05 05:23:25;;;;;;;4.40;2.33;;;18.50;97.70;;;18.25;100.00;100878.94;4971578;28;20049;-77
2022/07/05 05:25:52;;;;;;;6.28;2.40;;;17.90;98.10;;;18.26;100.00;100884.19;4984738;28;20038;-77
2022/07/05 05:28:19;;;;;;;3.05;2.20;;;18.50;98.10;;;18.32;100.00;100880.34;4986362;28;20053;-77
2022/07/05 05:30:46;;;;;;;3.88;2.22;;;18.00;97.60;;;18.38;100.00;100890.72;4986313;28;20038;-77
2022/07/05 05:33:13;;;;;;;4.72;2.78;;;18.10;97.60;;;18.37;100.00;100889.00;4983568;28;20042;-77
2022/07/05 05:35:41;;;;;;;6.45;3.05;;;18.10;97.30;;;18.41;100.00;100895.91;4985752;28;20057;-77
2022/07/05 05:38:08;;;;;;;7.50;2.92;;;18.10;97.20;;;18.58;100.00;100894.22;4988182;28;20070;-77
2022/07/05 05:40:37;;;;;;;3.85;2.35;;;18.20;96.60;;;18.61;100.00;100899.38;4987091;28;20694;-78
2022/07/05 05:43:04;;;;;;;4.03;3.10;;;18.30;96.50;;;18.62;100.00;100901.09;4983866;28;20069;-77
2022/07/05 05:45:31;;;;;;;5.97;2.60;;;18.40;96.40;;;18.80;100.00;100904.66;4986339;28;20655;-78
2022/07/05 05:47:59;;;;;;;4.97;3.15;;;18.50;95.50;;;18.93;100.00;100896.91;4993251;28;20050;-78
2022/07/05 05:50:28;;;;;;;5.32;2.83;;;18.60;95.50;;;18.94;100.00;100909.28;4971327;28;20053;-77
2022/07/05 05:52:56;;;;;;;4.25;2.63;;;18.70;95.20;;;18.95;100.00;100903.00;4985804;28;20046;-77
2022/07/05 05:55:24;;;;;;;6.68;3.00;;;18.70;95.10;;;18.97;100.00;100900.28;4971395;28;20072;-79
2022/07/05 05:57:52;;;;;;;5.57;2.40;;;18.80;95.10;;;19.09;100.00;100910.34;4970074;28;20047;-78
2022/07/05 06:00:21;;;;;;;5.13;2.20;;;18.80;94.80;;;19.13;100.00;100903.91;4983980;28;20053;-78
2022/07/05 06:02:50;;;;;;;4.05;2.72;;;18.90;94.60;;;19.26;100.00;100904.13;4983826;28;20042;-78
2022/07/05 06:05:18;;;;;;;3.85;2.03;;;19.00;94.50;;;19.20;100.00;100911.59;4980095;28;20129;-78
2022/07/05 06:07:56;;;;;;;8.15;2.90;;;19.00;94.40;;;19.25;100.00;100910.41;4985306;28;20046;-79
2022/07/05 06:10:32;;;;;;;3.90;2.33;;;19.00;94.50;;;19.35;100.00;100910.78;4970593;28;20050;-79
2022/07/05 06:13:03;;;;;;;4.78;2.80;;;19.00;94.30;;;19.41;100.00;100907.81;4983661;28;20054;-79
2022/07/05 06:15:29;;;;;;;;;;;19.10;94.10;;;19.50;100.00;100916.25;4983170;28;20041;-79
2022/07/05 06:17:57;;;;;;;3.88;2.42;;;19.10;94.10;;;19.62;100.00;100909.44;4984514;28;20394;-79
2022/07/05 06:20:34;;;;;;;4.05;2.55;;;19.20;93.80;;;19.62;100.00;100912.09;4963253;28;20042;-78
2022/07/05 06:23:02;;;;;;;6.93;2.20;;;19.30;93.90;;;19.66;100.00;100910.97;4981814;28;20042;-79
2022/07/05 06:25:31;;;;;;;6.13;2.75;;;19.30;93.60;;;19.76;100.00;100919.34;4986613;28;20073;-79
2022/07/05 06:28:06;;;;;;;4.70;2.20;;;19.40;93.60;;;19.93;100.00;100916.66;4987466;28;20053;-79
2022/07/05 06:30:37;;;;;;;4.05;2.42;;;19.50;93.20;;;19.92;100.00;100927.44;4988440;28;20065;-79
2022/07/05 06:33:04;;;;;;;;;;;19.60;93.20;;;20.03;100.00;100922.34;4987747;28;20057;-80
2022/07/05 06:35:31;;;;;;;5.32;2.28;;;19.70;93.10;;;20.13;100.00;100920.03;4988014;28;20256;-79
2022/07/05 06:38:09;;;;;;;3.20;2.35;;;19.70;93.00;;;20.23;100.00;100925.75;4953791;28;20046;-79
2022/07/05 06:40:39;;;;;;;5.57;2.55;;;19.80;92.90;;;20.27;100.00;100924.63;4982410;28;20050;-80
2022/07/05 06:43:08;;;;;;;5.97;2.25;;;19.80;92.70;;;20.31;100.00;100915.47;4983093;28;20135;-80
2022/07/05 06:45:48;;;;;;;9.68;2.25;;;19.90;92.60;;;20.36;100.00;100918.75;4982006;28;20618;-79
2022/07/05 06:48:15;;;;;;;5.55;1.92;;;20.00;92.60;;;20.44;100.00;100923.66;4985788;28;20050;-80
2022/07/05 06:50:44;;;;;;;6.55;2.20;;;20.00;92.30;;;20.47;100.00;100925.28;4983827;28;20038;-79
2022/07/05 06:53:14;;;;;;;5.57;2.10;;;20.10;92.10;;;20.57;100.00;100933.66;4983123;28;20479;-79
2022/07/05 06:55:44;;;;;;;5.10;1.95;;;20.10;92.00;;;20.63;100.00;100926.13;4984755;28;20074;-77
2022/07/05 06:58:19;;;;;;;6.07;2.00;;;20.20;91.90;;;20.67;100.00;100925.00;4975945;28;20046;-77
2022/07/05 07:00:46;;;;;;;3.35;1.88;;;20.20;91.90;;;20.70;99.66;100918.63;4970522;28;20097;-79
2022/07/05 07:03:33;;;;;;;4.43;2.30;;;20.30;91.50;;;20.78;98.73;100924.41;4988620;28;20046;-79
2022/07/05 07:06:20;;;;;;;5.63;1.85;;;20.40;91.40;;;20.91;98.08;100927.25;4981793;28;20047;-80
2022/07/05 07:11:33;;;;;;;4.45;2.20;;;20.50;91.40;;;21.02;98.04;100923.09;4985852;28;20401;-79
2022/07/05 07:14:00;;;;;;;5.95;1.90;;;20.60;91.30;;;21.20;94.91;100945.19;4969919;28;20641;-79
2022/07/05 07:16:27;;;;;;;7.60;2.00;;;20.70;91.00;;;21.29;93.63;100935.72;4984276;28;20129;-79
2022/07/05 07:18:55;;;;;;;4.85;1.95;;;20.80;90.80;;;21.30;91.93;100937.47;4987444;28;20251;-79
2022/07/05 07:21:41;;;;;;;4.53;2.13;;;20.80;90.60;;;21.28;94.16;100936.69;4971384;28;20415;-79
2022/07/05 07:24:09;;;;;;;4.78;1.63;;;20.90;90.60;;;21.46;93.85;100940.09;4984763;28;20121;-79
2022/07/05 07:27:02;;;;;;;7.35;2.05;;;21.00;90.70;;;21.58;95.81;100942.00;4972537;28;20074;-80
2022/07/05 07:29:26;;;;;;;7.22;2.35;;;21.00;90.90;;;21.62;92.43;100946.22;4990885;28;20746;-79
2022/07/05 07:31:55;;;;;;;5.22;2.10;;;21.10;90.60;;;21.66;93.16;100946.94;4985961;28;20050;-79
2022/07/05 07:34:22;;;;;;;5.95;1.70;;;21.20;90.60;;;21.66;96.12;100953.13;4967629;28;20050;-78
2022/07/05 07:36:50;;;;;;;5.13;1.80;;;21.20;90.80;;;21.72;94.07;100954.56;4988647;28;20134;-80
2022/07/05 07:39:17;;;;;;;4.20;1.65;;;21.30;90.60;;;21.75;87.23;100954.38;4991189;28;20121;-80
2022/07/05 07:41:45;;;;;;;5.32;1.67;;;21.30;89.90;;;21.79;89.37;100944.34;4989915;28;20038;-80
2022/07/05 07:44:12;;;;;;;9.10;2.20;;;21.30;90.10;;;21.82;85.58;100946.81;4975678;28;20050;-80
2022/07/05 07:46:39;;;;;;;3.17;1.80;;;21.40;89.40;;;21.93;84.87;100948.81;4992315;28;20399;-79
2022/07/05 07:49:10;;;;;;;3.47;1.48;;;21.40;89.30;;;22.03;85.34;100944.59;4959206;28;20086;-79
2022/07/05 07:51:38;;;;;;;3.13;1.88;;;21.50;89.40;;;21.99;84.95;100947.56;4987842;28;20084;-78
2022/07/05 07:54:06;;;;;;;8.75;2.05;;;21.50;89.10;;;22.26;86.23;100954.81;4985850;28;20078;-78
2022/07/05 07:56:33;;;;;;;6.25;2.05;;;21.60;89.60;;;22.31;87.18;100955.38;4970750;28;21311;-78
2022/07/05 07:59:00;;;;;;;2.97;1.90;;;21.70;89.70;;;22.37;82.58;100957.69;4984792;28;20039;-77
2022/07/05 08:01:27;;;;;;;5.13;1.80;;;21.80;88.60;;;22.51;81.43;100954.13;4985231;28;20030;-78
2022/07/05 08:03:54;;;;;;;2.35;1.60;;;21.90;88.40;;;22.61;81.88;100949.00;4988047;28;20119;-79
2022/07/05 08:06:21;;;;;;;4.50;1.67;;;22.00;88.40;;;22.65;80.40;100953.25;4987901;28;20046;-80
2022/07/05 08:08:48;;;;;;;6.00;2.10;;;22.10;88.00;;;22.73;81.58;100953.56;4974621;28;20054;-80
2022/07/05 08:11:16;;;;;;;3.08;2.08;;;22.20;88.00;;;22.84;75.79;100955.53;4970460;28;20070;-79
2022/07/05 08:13:43;;;;;;;3.80;2.17;;;22.30;86.80;;;22.93;76.89;100957.63;4972306;28;20068;-79
2022/07/05 08:16:11;;;;;;;5.32;1.80;;;22.40;86.90;;;22.93;73.74;100951.38;4994138;28;20491;-80
2022/07/05 08:21:30;;;;;;;3.50;1.67;;;22.50;87.20;;;23.06;73.16;100954.09;4991813;28;20062;-80
2022/07/05 08:24:06;;;;;;;4.30;1.77;;;22.50;85.80;;;23.05;69.73;100949.72;4975049;28;20444;-79
2022/07/05 08:26:35;;;;;;;6.47;1.98;;;22.60;84.30;;;23.20;68.98;100953.16;4989847;28;20043;-79
2022/07/05 08:29:08;;;;;;;3.05;1.60;;;22.70;84.60;;;23.28;61.01;100950.84;4973806;28;20074;-80
2022/07/05 08:31:39;;;;;;;4.40;1.63;;;22.70;82.20;;;23.40;60.74;100954.50;4987104;28;20042;-79
2022/07/05 08:34:06;;;;;;;5.22;2.40;;;22.80;82.20;;;23.45;61.09;100957.72;4985964;28;20134;-79
2022/07/05 08:36:33;;;;;;;3.05;1.45;;;23.60;82.60;;;23.51;58.20;100948.38;4974718;28;20056;-79
2022/07/05 08:39:00;;;;;;;1.67;1.45;;;22.90;81.00;;;23.63;58.07;100949.34;4986043;28;20065;-79
2022/07/05 08:41:29;;;;;;;3.70;1.77;;;23.00;80.80;;;23.68;61.88;100943.66;4988279;28;20089;-80
2022/07/05 08:43:58;;;;;;;3.35;1.88;;;23.10;81.70;;;23.72;59.74;100947.84;4982469;28;21469;-79
2022/07/05 08:46:27;;;;;;;5.20;2.10;;;23.20;80.90;;;23.79;59.19;100946.44;4986383;28;20534;-80
2022/07/05 08:48:58;;;;;;;5.57;1.70;;;23.20;80.50;;;23.79;61.02;100947.28;4986036;28;20046;-80
2022/07/05 08:51:28;;;;;;;2.20;1.55;;;23.30;80.80;;;23.87;55.48;100945.91;4976027;28;20113;-78
2022/07/05 08:53:56;;;;;;;;;;;23.30;79.00;;;24.00;55.41;100941.38;4990559;28;20054;-76
2022/07/05 08:56:53;;;;;;;2.72;1.52;;;23.40;78.80;;;24.02;54.77;100938.56;4948662;29;19973;-76
2022/07/05 09:00:14;;;;;;;3.83;1.58;;;23.40;78.50;;;24.05;54.45;100939.25;4933079;29;20055;-77
2022/07/05 09:03:16;;;;;;;4.13;2.17;;;23.50;78.20;;;24.11;52.32;100943.31;4920018;29;20059;-78
2022/07/05 09:06:27;;;;;;;3.72;1.50;;;23.50;76.90;;;24.22;54.42;100934.47;4923150;29;20142;-79
2022/07/05 09:09:06;;;;;;;3.22;1.92;;;23.60;77.60;;;24.42;54.60;100937.50;4934135;29;20055;-77
2022/07/05 09:12:20;;;;;;;4.63;1.83;;;23.70;77.80;;;24.39;50.47;100937.75;4898492;29;20063;-79
2022/07/05 09:15:39;;;;;;;4.60;1.83;;;23.80;75.70;;;24.43;52.74;100937.41;4917781;29;20055;-77
2022/07/05 09:19:17;;;;;;;3.67;1.90;;;23.90;76.40;;;24.60;50.67;100933.47;4912637;29;20067;-78
2022/07/05 09:22:12;;;;;;;3.15;1.92;;;24.00;75.60;;;24.65;51.49;100933.09;4887688;29;20118;-79
2022/07/05 09:24:57;;;;;;;3.45;1.67;;;24.10;75.90;;;24.78;50.63;100942.00;4935444;29;20103;-77
2022/07/05 09:27:49;;;;;;;4.13;1.95;;;24.10;75.20;;;24.82;51.03;100944.47;4900607;29;20043;-78
2022/07/05 09:30:46;;;;;;;3.80;1.60;;;24.20;75.00;;;24.82;47.21;100939.97;4924050;28;20102;-78
2022/07/05 09:41:35;;;;;;;4.32;1.90;;;25.00;74.10;;;25.17;46.38;100939.09;4937978;28;20102;-79
2022/07/05 09:44:57;;;;;;;5.00;1.90;;;24.40;72.10;;;25.22;45.78;100937.91;4914336;28;20188;-77
2022/07/05 09:47:39;;;;;;;6.70;1.70;;;24.60;71.30;;;25.25;46.92;100940.34;4915736;28;20427;-76
2022/07/05 09:50:14;;;;;;;4.65;1.38;;;24.70;71.90;;;25.29;42.34;100945.38;4876897;28;20086;-77
2022/07/05 09:53:04;;;;;;;2.00;1.35;;;24.70;68.10;;;25.32;43.95;100945.13;4958030;28;20063;-77
2022/07/05 09:55:36;;;;;;;4.72;1.55;;;24.80;69.10;;;25.34;44.68;100942.31;4941639;29;20763;-77
2022/07/05 09:58:03;;;;;;;3.05;1.92;;;24.90;69.40;;;25.46;44.80;100941.34;4951910;28;20078;-77
2022/07/05 10:00:30;;;;;;;2.05;1.27;;;24.90;69.40;;;25.55;43.63;100939.81;4911304;29;20097;-77
2022/07/05 10:03:15;;;;;;;1.77;1.00;;;25.00;68.40;;;25.68;42.31;100939.72;4883032;29;20039;-77
2022/07/05 10:05:42;;;;;;;2.17;1.20;;;25.10;67.30;;;25.63;42.52;100931.13;4910465;29;20056;-77
2022/07/05 10:08:12;;;;;;;2.40;1.38;;;25.10;67.00;;;25.79;40.29;100938.84;4893845;29;20075;-77
2022/07/05 10:10:43;;;;;;;4.72;1.75;;;25.30;65.30;;;25.87;40.29;100941.78;4894282;29;20085;-77
2022/07/05 10:13:13;;;;;;;3.83;1.02;;;25.40;65.00;;;25.93;39.56;100929.66;4883139;29;20146;-78
2022/07/05 10:15:42;;;;;;;2.45;1.23;;;25.40;63.90;;;25.87;38.39;100931.00;4901026;29;20059;-77
2022/07/05 10:18:13;;;;;;;5.35;1.60;;;25.50;62.40;;;26.14;40.50;100926.19;4926261;29;20055;-78
2022/07/05 10:20:45;;;;;;;2.85;1.25;;;25.50;64.50;;;26.31;38.17;100933.81;4912260;29;20056;-76
2022/07/05 10:23:15;;;;;;;2.65;1.10;;;25.70;62.40;;;26.32;38.85;100930.13;4930019;28;20068;-76
2022/07/05 10:25:48;;;;;;;2.67;1.10;;;25.80;62.80;;;26.41;38.71;100933.03;4918409;28;20052;-77
2022/07/05 10:28:21;;;;;;;2.22;1.23;;;25.80;62.30;;;26.38;38.15;100941.38;4951596;28;20043;-78
2022/07/05 10:30:51;;;;;;;2.60;1.10;;;25.90;61.30;;;26.43;38.32;100936.44;4952901;28;20113;-78
2022/07/05 10:33:26;;;;;;;1.48;1.05;;;25.90;61.50;;;26.52;38.07;100934.84;4970294;28;20946;-77
2022/07/05 10:35:54;;;;;;;4.20;1.40;;;26.00;61.30;;;26.54;39.72;100933.72;4981709;28;20463;-78
2022/07/05 10:38:22;;;;;;;2.88;1.30;;;26.10;62.60;;;26.62;38.59;100933.09;4986810;28;20047;-77
2022/07/05 10:40:57;;;;;;;5.82;1.40;;;26.10;62.10;;;26.64;37.18;100930.28;4968937;28;20110;-78